Chisholm Hibbing Airport
KHIB : now visible

Airfield :











YOU CAN JOIN US ON...

 
LOGIN :

Register | Disclaimer

   EN    FR    IT 

 









Legend :    VFR   Marginal VFR   IFR   Intensive IFR   Very Intensive IFR
Visi :
Ceiling :
>= 8 km
>= 3000ft
5 to 8 km
1000 to 3000 ft
1500m to 5 km
500 to 1000 ft
800 to 1500m
200 to 500 ft
< 800m
< 200 ft
Symbols :   Thunderstorms  Fog  Heavy snow  Heavy precipitations  Wind > 20 kt






- Airport Elevation : 1354 ft
- IATA code : HIB


KHIB - Chisholm Hibbing

CURRENT METAR :
  • 041253Z AUTO 00000KT 10SM FEW090 11/10 A3011 RMK AO2 SLP202 T01060100

EXPIRED METARs :
  • 041153Z AUTO 12004KT 10SM BKN090 OVC120 11/10 A3012 RMK AO2 SLP202 T01060100 10117 20100 56003
  • 041053Z AUTO 14005KT 10SM SCT120 12/11 A3012 RMK AO2 SLP204 T01170106

TAF KHIB
Valid from the 04 at 12:00 until the 05 at 12:00 UTC


041126Z 0412/0512 15005KT P6SM BKN120
FM042300 21005KT P6SM VCSH BKN080
KZMP FIR / North America



MET'MAP, your aeronautical weather chart ! - Copyright ORBIFLY December 2007 - Disclaimer

ORBIFLY MET'MAP TEAM :

Programming & Development : Alexandra Zaïnal
Original concept : Baudouin d'Aumeries
Technical & hardware support : Manuel Goepfert
Assistance : Marc-Olivier Méhu




SOURCES & CREDITS :

   NOAA       Earth
Advisory